Common Venture — SVBL4 — position and weather

sailwx.info

Track history (hours):
 
Tides and Currents Weather Stations Pressure Air Temp Water Temp Dewpoint Dewpoint Depression Visibility Wind Speed Wind Dir Waves Ship Positions

Common Venture

Last reported at 2018-Apr-19 06:08 UTC. Time now 2018-May-23 01:10 UTC.
Position S 30°12' E 031°16'.
Warning: this ship's position is 33 days out of date.

Length 190 m; draft 8.2 m.

Type: Cargo ship. MMSI: 241155000.

Date/timePositionNaut miles runAvg speedWind from/ knotsBaromVisibWave heightAir tempDewpointWater temp
2018-Apr-19 06:08S 30°12' E 031°16'411.9
2018-Apr-19 05:50S 30°09' E 031°18'412.5
2018-Apr-19 05:28S 30°05' E 031°21'612.6
2018-Apr-19 05:00S 30°00' E 031°25'612.6
2018-Apr-19 04:30S 29°56' E 031°29'612.6
2018-Apr-19 04:00S 29°50' E 031°33'713.1
2018-Apr-19 03:30S 29°44' E 031°36'713.4
2018-Apr-19 03:00S 29°38' E 031°39'713.4
2018-Apr-19 02:30S 29°32' E 031°43'713.6
2018-Apr-19 01:59S 29°26' E 031°47'613.4
2018-Apr-19 01:30S 29°21' E 031°51'714.3
2018-Apr-19 01:01S 29°15' E 031°55'  
2018-Apr-13 23:40S 28°54' E 032°10'0 0.1
2018-Apr-13 23:28S 28°54' E 032°10'0 0.0
2018-Apr-13 22:58S 28°54' E 032°10'0 0.0
2018-Apr-13 15:34S 28°54' E 032°10'0 0.4
2018-Apr-13 15:28S 28°54' E 032°10'  
Track history (hours):
 
Tides and Currents Weather Stations Pressure Air Temp Water Temp Dewpoint Dewpoint Depression Visibility Wind Speed Wind Dir Waves Ship Positions

Common Venture

Last reported at 2018-Apr-19 06:08 UTC. Time now 2018-May-23 01:10 UTC.
Position S 30°12' E 031°16'.
Warning: this ship's position is 33 days out of date.

Length 190 m; draft 8.2 m.

Type: Cargo ship. MMSI: 241155000.

Date/timePositionNaut miles runAvg speedWind from/ knotsBaromVisibWave heightAir tempDewpointWater temp
2018-Apr-19 06:08S 30°12' E 031°16'411.9
2018-Apr-19 05:50S 30°09' E 031°18'412.5
2018-Apr-19 05:28S 30°05' E 031°21'612.6
2018-Apr-19 05:00S 30°00' E 031°25'612.6
2018-Apr-19 04:30S 29°56' E 031°29'612.6
2018-Apr-19 04:00S 29°50' E 031°33'713.1
2018-Apr-19 03:30S 29°44' E 031°36'713.4
2018-Apr-19 03:00S 29°38' E 031°39'713.4
2018-Apr-19 02:30S 29°32' E 031°43'713.6
2018-Apr-19 01:59S 29°26' E 031°47'613.4
2018-Apr-19 01:30S 29°21' E 031°51'714.3
2018-Apr-19 01:01S 29°15' E 031°55'  
2018-Apr-13 23:40S 28°54' E 032°10'0 0.1
2018-Apr-13 23:28S 28°54' E 032°10'0 0.0
2018-Apr-13 22:58S 28°54' E 032°10'0 0.0
2018-Apr-13 15:34S 28°54' E 032°10'0 0.4
2018-Apr-13 15:28S 28°54' E 032°10'  

Dump ship's entire track history